Time;durP1;ratioP1;P1;durP2;ratioP2;P2;SDS_P1;SDS_P2;PMS_P1;PMS_P2;Temp;Humidity;BMP_temperature;BMP_pressure;BME280_temperature;BME280_humidity;BME280_pressure;Samples;Min_cycle;Max_cycle;Signal;HPM_P1;HPM_P2
2021/01/01 00:01:46;;;;;;;10.98;1.63;;;19.00;94.80;;;;;;5070193;28;20465;-87
2021/01/01 00:04:14;;;;;;;8.23;1.50;;;19.10;94.20;;;;;;5070936;28;20374;-85
2021/01/01 00:06:47;;;;;;;7.85;1.63;;;19.10;93.60;;;;;;5051764;28;20391;-86
2021/01/01 00:09:15;;;;;;;11.00;1.80;;;19.00;94.20;;;;;;5061378;28;20390;-87
2021/01/01 00:11:42;;;;;;;7.30;1.08;;;18.90;94.80;;;;;;5072908;28;20405;-87
2021/01/01 00:14:13;;;;;;;8.52;1.60;;;19.00;94.70;;;;;;5066761;28;20386;-86
2021/01/01 00:16:41;;;;;;;8.95;1.23;;;19.00;94.10;;;;;;5073528;28;20404;-86
2021/01/01 00:19:08;;;;;;;11.00;1.77;;;19.00;93.60;;;;;;5070642;28;20363;-85
2021/01/01 00:21:35;;;;;;;9.48;1.60;;;19.10;93.90;;;;;;5070064;28;20443;-86
2021/01/01 00:24:02;;;;;;;11.88;1.50;;;19.10;93.60;;;;;;5069212;28;21079;-86
2021/01/01 00:26:29;;;;;;;9.18;1.55;;;19.20;94.00;;;;;;5067553;28;20433;-86
2021/01/01 00:28:56;;;;;;;11.82;1.50;;;19.20;93.00;;;;;;5052204;28;20784;-86
2021/01/01 00:31:24;;;;;;;10.05;1.60;;;19.30;93.60;;;;;;5069812;28;20475;-88
2021/01/01 00:33:52;;;;;;;9.30;1.23;;;19.20;93.10;;;;;;5070234;28;20512;-87
2021/01/01 00:36:20;;;;;;;11.38;1.50;;;19.30;93.20;;;;;;5066783;28;20398;-85
2021/01/01 00:38:52;;;;;;;7.63;1.30;;;19.30;93.30;;;;;;5069452;28;20496;-87
2021/01/01 00:41:29;;;;;;;9.80;1.45;;;19.30;94.00;;;;;;5066902;28;20940;-86
2021/01/01 00:43:57;;;;;;;10.88;1.35;;;19.30;93.80;;;;;;5065032;28;20427;-86
2021/01/01 00:46:26;;;;;;;9.23;1.50;;;19.30;92.50;;;;;;5060167;28;20492;-87
2021/01/01 00:48:53;;;;;;;12.02;1.83;;;19.30;92.60;;;;;;5064569;28;20808;-86
2021/01/01 00:51:31;;;;;;;9.95;1.38;;;19.40;93.10;;;;;;5063378;28;20385;-87
2021/01/01 00:54:01;;;;;;;11.75;1.70;;;19.40;92.80;;;;;;5067819;28;20363;-88
2021/01/01 00:56:30;;;;;;;11.35;1.73;;;19.30;92.60;;;;;;5066169;28;20449;-87
2021/01/01 00:58:58;;;;;;;11.93;1.75;;;19.30;92.40;;;;;;5068872;28;20390;-90
2021/01/01 01:01:27;;;;;;;7.25;1.42;;;19.20;92.60;;;;;;5068753;28;20393;-90
2021/01/01 01:03:57;;;;;;;12.50;1.50;;;19.20;93.10;;;;;;5069109;28;20421;-92
2021/01/01 01:06:25;;;;;;;8.52;1.42;;;19.30;92.70;;;;;;5067975;28;20395;-89
2021/01/01 01:08:54;;;;;;;10.52;2.00;;;19.30;92.30;;;;;;5068760;28;20501;-87
2021/01/01 01:11:29;;;;;;;12.77;2.03;;;19.20;92.40;;;;;;5065527;28;20530;-87
2021/01/01 01:13:57;;;;;;;11.43;1.73;;;19.20;93.20;;;;;;5059153;28;21197;-87
2021/01/01 01:16:29;;;;;;;12.50;1.45;;;19.20;92.50;;;;;;5062746;28;20399;-88
2021/01/01 01:18:57;;;;;;;8.30;1.40;;;19.10;92.80;;;;;;5069011;28;20374;-87
2021/01/01 01:21:25;;;;;;;9.70;1.48;;;19.10;92.60;;;;;;5068467;28;20375;-88
2021/01/01 01:23:54;;;;;;;11.18;1.90;;;19.20;92.50;;;;;;5069018;28;20428;-89
2021/01/01 01:26:21;;;;;;;11.90;1.60;;;19.20;93.20;;;;;;5068153;28;20406;-87
2021/01/01 01:28:48;;;;;;;10.50;1.57;;;19.20;93.30;;;;;;5075434;28;20475;-85
2021/01/01 01:31:16;;;;;;;6.93;1.25;;;19.10;93.20;;;;;;5037149;28;20843;-86
2021/01/01 01:33:44;;;;;;;11.73;1.75;;;19.10;93.80;;;;;;5037105;28;20888;-89
2021/01/01 01:36:11;;;;;;;10.57;1.58;;;19.10;93.60;;;;;;5068396;28;20394;-89
2021/01/01 01:38:38;;;;;;;10.52;1.60;;;19.10;93.30;;;;;;5067540;28;20401;-89
2021/01/01 01:41:05;;;;;;;9.10;1.60;;;19.00;93.40;;;;;;5051335;28;20870;-88
2021/01/01 01:43:32;;;;;;;6.97;1.48;;;19.00;93.40;;;;;;5058005;28;20884;-89
2021/01/01 01:45:59;;;;;;;9.15;1.58;;;18.90;94.00;;;;;;5068951;28;20408;-91
2021/01/01 01:48:35;;;;;;;9.87;1.47;;;18.90;93.70;;;;;;5065590;28;20455;-86
2021/01/01 01:51:07;;;;;;;11.25;1.60;;;19.00;94.50;;;;;;5073407;28;20406;-83
2021/01/01 01:53:42;;;;;;;10.18;1.50;;;19.10;94.10;;;;;;5070713;28;20979;-85
2021/01/01 01:56:10;;;;;;;9.63;1.65;;;19.20;93.30;;;;;;5070268;28;20397;-87
2021/01/01 01:58:39;;;;;;;10.82;1.73;;;19.20;93.20;;;;;;5068653;28;20412;-85
2021/01/01 02:01:06;;;;;;;9.40;1.88;;;19.20;93.10;;;;;;5066765;28;20394;-84
2021/01/01 02:03:34;;;;;;;7.63;1.50;;;19.20;92.90;;;;;;5057959;28;20958;-85
2021/01/01 02:06:02;;;;;;;9.68;1.48;;;19.10;92.70;;;;;;5072753;28;20477;-84
2021/01/01 02:08:29;;;;;;;9.55;1.50;;;19.10;92.70;;;;;;5053507;28;20515;-85
2021/01/01 02:10:58;;;;;;;12.00;1.33;;;19.00;93.30;;;;;;5074551;28;20484;-84
2021/01/01 02:13:26;;;;;;;7.13;1.30;;;19.00;93.80;;;;;;5070806;28;20408;-85
2021/01/01 02:15:53;;;;;;;14.77;1.52;;;18.90;93.70;;;;;;5070950;28;20402;-85
2021/01/01 02:18:40;;;;;;;8.82;1.40;;;19.00;92.60;;;;;;5067633;28;20386;-85
2021/01/01 02:21:09;;;;;;;9.63;1.23;;;19.00;92.90;;;;;;5069202;28;20838;-85
2021/01/01 02:23:37;;;;;;;11.77;1.80;;;18.90;93.40;;;;;;5068344;28;20394;-86
2021/01/01 02:26:04;;;;;;;9.07;1.63;;;18.90;92.70;;;;;;5069632;28;20495;-84
2021/01/01 02:28:32;;;;;;;6.50;1.40;;;18.90;92.60;;;;;;5068708;28;20484;-85
2021/01/01 02:30:59;;;;;;;5.97;1.10;;;18.90;92.60;;;;;;5067090;28;20485;-85
2021/01/01 02:33:26;;;;;;;8.02;1.67;;;18.90;92.90;;;;;;5068677;28;20388;-84
2021/01/01 02:35:53;;;;;;;8.98;1.30;;;18.90;92.80;;;;;;5068552;28;20393;-85
2021/01/01 02:38:20;;;;;;;11.25;1.85;;;18.90;92.70;;;;;;5068406;28;20493;-84
2021/01/01 02:40:47;;;;;;;8.18;1.48;;;18.80;93.00;;;;;;5068233;28;20444;-85
2021/01/01 02:43:14;;;;;;;7.30;1.30;;;18.90;92.80;;;;;;5068187;28;20386;-85
2021/01/01 02:45:41;;;;;;;8.02;1.60;;;18.80;92.70;;;;;;5068339;28;20468;-85
2021/01/01 02:48:16;;;;;;;7.90;1.48;;;18.90;93.30;;;;;;5067502;28;20418;-86
2021/01/01 02:50:44;;;;;;;10.85;1.42;;;18.80;93.10;;;;;;5068076;28;20443;-84
2021/01/01 02:53:12;;;;;;;10.90;1.65;;;18.90;93.30;;;;;;5069372;28;21861;-86
2021/01/01 02:55:40;;;;;;;11.15;2.10;;;18.90;92.60;;;;;;5067857;28;20969;-85
2021/01/01 02:58:08;;;;;;;8.38;1.38;;;18.80;92.80;;;;;;5068495;28;20392;-88
2021/01/01 03:00:38;;;;;;;10.18;1.73;;;18.80;93.20;;;;;;5061861;28;20390;-86
2021/01/01 03:03:22;;;;;;;8.93;1.33;;;18.80;93.00;;;;;;5066990;28;20401;-87
2021/01/01 03:05:49;;;;;;;9.18;1.63;;;18.80;93.20;;;;;;5059182;28;20424;-85
2021/01/01 03:08:16;;;;;;;10.13;1.48;;;18.70;92.60;;;;;;5063545;28;20402;-87
2021/01/01 03:10:43;;;;;;;9.23;1.40;;;18.80;93.10;;;;;;5069506;28;20444;-85
2021/01/01 03:13:10;;;;;;;9.68;1.50;;;18.80;92.60;;;;;;5063433;28;20394;-85
2021/01/01 03:15:37;;;;;;;8.37;1.40;;;18.80;93.10;;;;;;5068455;28;20401;-84
2021/01/01 03:18:05;;;;;;;7.45;1.35;;;18.80;92.20;;;;;;5071185;28;20473;-86
2021/01/01 03:20:32;;;;;;;5.97;1.02;;;18.80;92.30;;;;;;5068013;28;20850;-84
2021/01/01 03:22:59;;;;;;;6.57;1.00;;;18.80;92.10;;;;;;5071603;28;20395;-85
2021/01/01 03:25:26;;;;;;;10.47;1.17;;;18.80;92.10;;;;;;5072185;28;20505;-85
2021/01/01 03:27:53;;;;;;;6.25;1.05;;;18.70;92.40;;;;;;5069590;28;21237;-86
2021/01/01 03:30:20;;;;;;;7.68;1.23;;;18.60;93.20;;;;;;5070469;28;20472;-85
2021/01/01 03:32:47;;;;;;;6.00;0.80;;;18.40;93.20;;;;;;5069186;28;20449;-85
2021/01/01 03:35:15;;;;;;;6.60;1.27;;;18.30;95.30;;;;;;5068664;28;20413;-86
2021/01/01 03:37:42;;;;;;;10.65;1.73;;;18.20;94.70;;;;;;5068163;28;20398;-86
2021/01/01 03:40:09;;;;;;;6.97;1.30;;;18.10;94.50;;;;;;5056550;28;20765;-83
2021/01/01 03:42:36;;;;;;;10.63;1.63;;;18.10;95.20;;;;;;5063537;28;20928;-81
2021/01/01 03:45:03;;;;;;;7.88;1.70;;;18.10;95.80;;;;;;5067264;28;20398;-83
2021/01/01 03:47:30;;;;;;;9.43;1.58;;;17.90;95.60;;;;;;5067439;28;20397;-81
2021/01/01 03:49:57;;;;;;;12.02;2.13;;;17.80;96.00;;;;;;5067582;28;20769;-81
2021/01/01 03:52:25;;;;;;;10.50;1.77;;;17.70;96.60;;;;;;5070573;28;20422;-82
2021/01/01 03:54:51;;;;;;;7.27;1.83;;;17.70;96.10;;;;;;5067994;28;20477;-82
2021/01/01 03:57:18;;;;;;;8.60;1.50;;;17.70;96.20;;;;;;5067594;28;20421;-82
2021/01/01 03:59:46;;;;;;;7.85;1.42;;;17.70;95.80;;;;;;5067369;28;21982;-87
2021/01/01 04:02:13;;;;;;;10.90;1.50;;;17.70;96.20;;;;;;5067882;28;20390;-83
2021/01/01 04:04:40;;;;;;;7.43;1.33;;;17.80;96.30;;;;;;5066719;28;20441;-83
2021/01/01 04:07:08;;;;;;;9.30;1.40;;;17.80;96.40;;;;;;5068577;28;20405;-82
2021/01/01 04:09:35;;;;;;;9.35;1.48;;;17.80;96.60;;;;;;5067452;28;20454;-84
2021/01/01 04:12:02;;;;;;;10.10;1.55;;;17.70;95.80;;;;;;5067383;28;20402;-84
2021/01/01 04:14:29;;;;;;;7.28;1.30;;;17.60;96.50;;;;;;5067033;28;20445;-85
2021/01/01 04:16:57;;;;;;;8.77;1.25;;;17.50;96.00;;;;;;5067528;28;20396;-84
2021/01/01 04:19:26;;;;;;;7.30;1.30;;;17.50;96.70;;;;;;5069072;28;20409;-86
2021/01/01 04:21:53;;;;;;;7.60;1.10;;;17.50;96.80;;;;;;5068588;28;20507;-88
2021/01/01 04:24:20;;;;;;;8.30;1.27;;;17.50;96.80;;;;;;5051183;28;20726;-83
2021/01/01 04:26:47;;;;;;;9.57;1.23;;;17.50;97.00;;;;;;5067316;28;20433;-86
2021/01/01 04:29:15;;;;;;;8.27;1.50;;;17.50;97.10;;;;;;5058180;28;20767;-84
2021/01/01 04:31:42;;;;;;;9.10;1.08;;;17.60;97.20;;;;;;5070378;28;20453;-84
2021/01/01 04:34:09;;;;;;;7.23;1.43;;;17.60;97.10;;;;;;5062781;28;20398;-85
2021/01/01 04:36:37;;;;;;;7.97;1.40;;;17.70;97.00;;;;;;5060748;28;20401;-85
2021/01/01 04:39:05;;;;;;;6.47;1.17;;;17.70;96.30;;;;;;5058691;28;20430;-86
2021/01/01 04:41:34;;;;;;;4.78;0.88;;;17.70;96.20;;;;;;5053038;28;20451;-83
2021/01/01 04:44:06;;;;;;;5.78;1.08;;;17.70;96.00;;;;;;5063924;28;20415;-82
2021/01/01 04:46:33;;;;;;;7.95;1.35;;;17.60;95.70;;;;;;5068270;28;20465;-84
2021/01/01 04:49:01;;;;;;;7.37;1.30;;;17.60;96.00;;;;;;5064584;28;20406;-84
2021/01/01 04:51:28;;;;;;;3.50;0.88;;;17.70;95.80;;;;;;5066547;28;20384;-84
2021/01/01 04:53:56;;;;;;;6.63;1.48;;;17.70;95.70;;;;;;5069123;28;20402;-84
2021/01/01 04:56:24;;;;;;;7.43;1.00;;;17.60;95.60;;;;;;5067088;28;20397;-84
2021/01/01 04:58:53;;;;;;;6.63;1.15;;;17.60;95.70;;;;;;5068171;28;20485;-84
2021/01/01 05:01:24;;;;;;;10.47;1.60;;;17.60;95.70;;;;;;5066655;28;20967;-83
2021/01/01 05:03:51;;;;;;;7.65;1.35;;;17.60;95.60;;;;;;5067660;28;20412;-83
2021/01/01 05:06:31;;;;;;;6.05;1.17;;;17.70;95.80;;;;;;5067476;28;20539;-83
2021/01/01 05:09:01;;;;;;;9.35;1.08;;;17.70;95.70;;;;;;5066569;28;20404;-83
2021/01/01 05:11:28;;;;;;;6.70;1.30;;;17.80;95.90;;;;;;5063540;28;20414;-83
2021/01/01 05:14:00;;;;;;;10.73;1.65;;;17.80;95.60;;;;;;5062494;28;20382;-84
2021/01/01 05:16:27;;;;;;;8.37;1.80;;;17.80;96.20;;;;;;5047837;28;20482;-85
2021/01/01 05:18:55;;;;;;;8.77;1.23;;;17.80;96.30;;;;;;5067641;28;20407;-85
2021/01/01 05:21:29;;;;;;;7.05;1.20;;;17.90;95.50;;;;;;5066978;28;20520;-90
2021/01/01 05:23:57;;;;;;;9.18;1.35;;;18.00;95.60;;;;;;5059194;28;20402;-84
2021/01/01 05:26:30;;;;;;;6.20;1.60;;;18.00;95.60;;;;;;5066855;28;20981;-84
2021/01/01 05:29:10;;;;;;;8.27;1.40;;;18.00;95.30;;;;;;5067187;28;20409;-84
2021/01/01 05:31:41;;;;;;;5.72;1.10;;;18.00;95.20;;;;;;5056897;28;20402;-84
2021/01/01 05:34:10;;;;;;;7.13;1.65;;;17.90;95.40;;;;;;5067339;28;20405;-84
2021/01/01 05:36:48;;;;;;;7.32;1.20;;;17.90;96.00;;;;;;5067254;28;20394;-85
2021/01/01 05:39:15;;;;;;;7.47;1.15;;;18.00;95.90;;;;;;5055863;28;20419;-84
2021/01/01 05:41:44;;;;;;;7.07;1.23;;;18.00;95.80;;;;;;5063031;28;20466;-85
2021/01/01 05:44:21;;;;;;;6.78;1.35;;;18.00;95.50;;;;;;5065742;28;20476;-83
2021/01/01 05:46:56;;;;;;;8.93;1.48;;;18.00;96.10;;;;;;5067581;28;20390;-84
2021/01/01 05:49:26;;;;;;;11.32;1.10;;;18.10;96.00;;;;;;5062504;28;20432;-84
2021/01/01 05:52:18;;;;;;;7.47;1.67;;;18.20;96.10;;;;;;5065437;28;20460;-83
2021/01/01 05:54:47;;;;;;;8.52;1.17;;;18.10;95.40;;;;;;5067119;28;20440;-85
2021/01/01 05:57:15;;;;;;;10.65;1.48;;;18.10;95.20;;;;;;5064020;28;20389;-84
2021/01/01 05:59:44;;;;;;;7.33;1.23;;;18.10;95.20;;;;;;5064674;28;20990;-84
2021/01/01 06:02:17;;;;;;;7.03;1.23;;;18.20;95.40;;;;;;5065340;28;20396;-84
2021/01/01 06:04:44;;;;;;;11.20;1.27;;;18.20;95.40;;;;;;5064006;28;20901;-84
2021/01/01 06:07:12;;;;;;;6.50;1.00;;;18.40;94.70;;;;;;5065428;28;20397;-83
2021/01/01 06:09:40;;;;;;;8.80;1.67;;;18.40;94.50;;;;;;5065485;28;20424;-83
2021/01/01 06:12:12;;;;;;;7.65;1.30;;;18.40;94.30;;;;;;5063034;28;20393;-84
2021/01/01 06:14:44;;;;;;;9.57;1.40;;;18.50;94.70;;;;;;5067284;28;20451;-83
2021/01/01 06:17:11;;;;;;;9.43;1.23;;;18.50;94.40;;;;;;5067612;28;20382;-83
2021/01/01 06:19:58;;;;;;;8.88;0.98;;;18.50;94.80;;;;;;5066839;28;20455;-83
2021/01/01 06:22:32;;;;;;;7.45;1.30;;;18.60;94.10;;;;;;5064475;28;20382;-83
2021/01/01 06:25:01;;;;;;;8.00;1.20;;;18.50;94.20;;;;;;5066117;28;20393;-83
2021/01/01 06:27:31;;;;;;;7.80;1.50;;;18.50;94.10;;;;;;5066147;28;20386;-83
2021/01/01 06:30:10;;;;;;;7.55;1.38;;;18.50;93.90;;;;;;5057005;28;20897;-85
2021/01/01 06:32:38;;;;;;;8.15;1.30;;;18.50;94.60;;;;;;5061744;28;20436;-84
2021/01/01 06:35:21;;;;;;;9.45;1.38;;;18.50;93.80;;;;;;5068286;28;20394;-83
2021/01/01 06:37:55;;;;;;;5.95;1.23;;;18.50;94.10;;;;;;5067339;28;20410;-83
2021/01/01 06:40:22;;;;;;;9.40;1.23;;;18.40;93.70;;;;;;5058354;28;20770;-85
2021/01/01 06:43:00;;;;;;;7.17;1.47;;;18.30;94.20;;;;;;5066541;28;20405;-85
2021/01/01 06:45:40;;;;;;;7.47;1.10;;;18.30;94.00;;;;;;5067216;28;20394;-84
2021/01/01 06:48:21;;;;;;;9.65;1.73;;;18.30;94.20;;;;;;5067517;28;20397;-86
2021/01/01 06:50:53;;;;;;;11.52;1.80;;;18.30;93.60;;;;;;5069353;28;20410;-84
2021/01/01 06:53:27;;;;;;;6.13;1.50;;;18.30;94.10;;;;;;5069635;28;20386;-85
2021/01/01 06:56:10;;;;;;;8.38;1.20;;;18.40;94.30;;;;;;5070577;28;20788;-84
2021/01/01 06:58:37;;;;;;;6.68;1.65;;;18.30;94.40;;;;;;5067745;28;20796;-85
2021/01/01 07:01:15;;;;;;;10.48;1.67;;;18.40;93.80;;;;;;5062288;28;20413;-85
2021/01/01 07:03:42;;;;;;;10.65;1.98;;;18.50;93.80;;;;;;5064264;28;20378;-85
2021/01/01 07:06:09;;;;;;;10.27;1.52;;;18.50;93.50;;;;;;5068455;28;20403;-83
2021/01/01 07:08:42;;;;;;;6.68;1.38;;;18.50;93.00;;;;;;5070930;28;20386;-84
2021/01/01 07:11:12;;;;;;;6.05;0.90;;;18.50;91.70;;;;;;5072283;28;20397;-87
2021/01/01 07:14:01;;;;;;;9.05;1.15;;;18.50;92.60;;;;;;5071711;28;20401;-85
2021/01/01 07:16:36;;;;;;;9.40;1.52;;;18.50;92.40;;;;;;5071981;28;20424;-86
2021/01/01 07:19:04;;;;;;;6.85;0.90;;;18.40;92.40;;;;;;5071676;28;20371;-86
2021/01/01 07:21:31;;;;;;;4.40;0.80;;;18.50;92.60;;;;;;5071691;28;20438;-89
2021/01/01 07:23:59;;;;;;;7.43;1.07;;;18.40;91.40;;;;;;5071685;28;20382;-85
2021/01/01 07:26:27;;;;;;;6.18;1.02;;;18.30;91.30;;;;;;5071180;28;20757;-86
2021/01/01 07:28:57;;;;;;;5.00;0.90;;;18.30;90.70;;;;;;5070939;28;20398;-87
2021/01/01 07:31:24;;;;;;;7.73;0.77;;;18.20;91.50;;;;;;5069081;28;20404;-86
2021/01/01 07:33:52;;;;;;;4.68;0.90;;;18.10;90.30;;;;;;5068481;28;20962;-85
2021/01/01 07:36:19;;;;;;;7.50;1.17;;;18.20;90.90;;;;;;5070112;28;20819;-84
2021/01/01 07:38:48;;;;;;;7.03;1.10;;;18.10;90.90;;;;;;5067106;28;20401;-86
2021/01/01 07:41:18;;;;;;;6.82;0.70;;;18.10;91.20;;;;;;5065021;28;20478;-84
2021/01/01 07:43:48;;;;;;;7.53;1.25;;;18.00;91.10;;;;;;5067879;28;20430;-84
2021/01/01 07:46:16;;;;;;;7.50;1.10;;;17.90;91.60;;;;;;5068710;28;20949;-85
2021/01/01 07:48:43;;;;;;;5.78;0.98;;;17.90;91.80;;;;;;5066722;28;20409;-86
2021/01/01 07:51:11;;;;;;;4.68;0.85;;;17.90;91.70;;;;;;5069570;28;20495;-84
2021/01/01 07:53:39;;;;;;;8.80;1.07;;;17.80;92.10;;;;;;5085873;28;20477;-84
2021/01/01 07:56:09;;;;;;;4.60;0.80;;;17.80;92.20;;;;;;5070124;28;20409;-85
2021/01/01 07:58:37;;;;;;;9.48;1.10;;;17.90;92.70;;;;;;5067454;28;20366;-83
2021/01/01 08:01:07;;;;;;;7.07;1.10;;;17.80;92.80;;;;;;5070578;28;20393;-83
2021/01/01 08:03:37;;;;;;;7.28;1.23;;;17.80;93.40;;;;;;5053014;28;20417;-84
2021/01/01 08:06:06;;;;;;;8.77;1.30;;;17.80;93.90;;;;;;5069650;28;20378;-83
2021/01/01 08:08:33;;;;;;;7.45;1.30;;;17.70;94.40;;;;;;5063120;28;20398;-83
2021/01/01 08:11:00;;;;;;;7.65;1.35;;;17.70;94.70;;;;;;5067615;28;20409;-83
2021/01/01 08:13:30;;;;;;;6.80;1.13;;;17.60;94.70;;;;;;5067010;28;20492;-83
2021/01/01 08:15:59;;;;;;;11.50;1.33;;;17.60;95.00;;;;;;5067474;28;20872;-84
2021/01/01 08:18:27;;;;;;;6.53;1.27;;;17.50;95.20;;;;;;5069641;28;20394;-84
2021/01/01 08:21:02;;;;;;;9.15;1.27;;;17.50;96.00;;;;;;5065642;28;20392;-84
2021/01/01 08:23:46;;;;;;;7.80;1.08;;;17.40;96.30;;;;;;5068836;28;20398;-86
2021/01/01 08:26:13;;;;;;;7.63;1.20;;;17.30;97.00;;;;;;5071049;28;20393;-83
2021/01/01 08:28:51;;;;;;;5.40;0.95;;;17.20;96.80;;;;;;5070366;28;20461;-85
2021/01/01 08:31:28;;;;;;;6.22;1.15;;;17.20;97.10;;;;;;5065653;28;20468;-85
2021/01/01 08:33:55;;;;;;;7.50;1.10;;;17.10;97.50;;;;;;5064439;28;20386;-84
2021/01/01 08:36:34;;;;;;;8.03;1.17;;;17.10;97.20;;;;;;5062628;28;20394;-83
2021/01/01 08:39:12;;;;;;;9.43;1.50;;;17.10;97.50;;;;;;5065428;28;20401;-83
2021/01/01 08:41:47;;;;;;;8.10;1.15;;;17.10;97.40;;;;;;5065964;28;20436;-83
2021/01/01 08:44:19;;;;;;;9.15;1.40;;;17.10;97.70;;;;;;5066990;28;20406;-83
2021/01/01 08:46:46;;;;;;;5.88;1.30;;;17.00;98.20;;;;;;5063575;28;20397;-83
2021/01/01 08:49:18;;;;;;;7.03;1.30;;;17.00;98.60;;;;;;5064848;28;20417;-83
2021/01/01 08:51:49;;;;;;;10.10;1.20;;;16.90;98.80;;;;;;5065460;28;20394;-82
2021/01/01 08:54:27;;;;;;;8.93;1.75;;;16.80;99.20;;;;;;5065604;28;20397;-82
2021/01/01 08:56:58;;;;;;;6.10;1.23;;;16.70;99.50;;;;;;5066947;28;20445;-82
2021/01/01 08:59:26;;;;;;;7.28;1.30;;;16.60;99.70;;;;;;5064853;28;20405;-82
2021/01/01 09:01:55;;;;;;;8.03;1.50;;;16.60;99.70;;;;;;5064148;28;20426;-82
2021/01/01 09:04:27;;;;;;;7.70;1.58;;;16.70;99.50;;;;;;5067145;28;20443;-82
2021/01/01 09:07:05;;;;;;;6.63;1.83;;;16.60;99.60;;;;;;5065346;28;20815;-84
2021/01/01 09:09:34;;;;;;;7.45;1.45;;;16.50;99.90;;;;;;5051704;28;20501;-83
2021/01/01 09:12:19;;;;;;;9.55;1.80;;;16.50;99.90;;;;;;5063310;28;20397;-82
2021/01/01 09:14:53;;;;;;;9.07;1.27;;;16.60;99.80;;;;;;5061981;28;20394;-83
2021/01/01 09:17:25;;;;;;;10.63;1.40;;;16.60;99.90;;;;;;5063197;28;20441;-83
2021/01/01 09:20:06;;;;;;;8.68;1.40;;;16.60;99.90;;;;;;5066322;28;21798;-84
2021/01/01 09:22:40;;;;;;;10.05;1.63;;;16.50;99.90;;;;;;5057992;28;20392;-84
2021/01/01 09:25:22;;;;;;;9.33;1.33;;;16.50;99.90;;;;;;5059367;28;21052;-84
2021/01/01 09:27:50;;;;;;;7.07;1.20;;;16.50;99.90;;;;;;5062834;28;20447;-84
2021/01/01 09:30:20;;;;;;;9.37;1.70;;;16.50;99.90;;;;;;5065042;28;20416;-83
2021/01/01 09:32:48;;;;;;;10.05;1.70;;;16.50;99.90;;;;;;5055888;28;20390;-83
2021/01/01 09:35:16;;;;;;;10.05;1.73;;;16.40;99.90;;;;;;5058898;28;20986;-84
2021/01/01 09:38:04;;;;;;;7.88;1.40;;;16.40;99.90;;;;;;5060986;28;20432;-85
2021/01/01 09:40:36;;;;;;;10.07;1.63;;;16.40;99.90;;;;;;5058896;28;20439;-84
2021/01/01 09:43:08;;;;;;;10.80;1.37;;;16.40;99.90;;;;;;5057037;28;20435;-85
2021/01/01 09:45:39;;;;;;;10.38;1.35;;;16.50;99.90;;;;;;5053895;28;20842;-89
2021/01/01 09:48:07;;;;;;;12.57;1.63;;;16.40;99.90;;;;;;5066808;28;20765;-85
2021/01/01 09:50:34;;;;;;;9.17;1.77;;;16.40;99.90;;;;;;5054214;28;20411;-84
2021/01/01 09:53:01;;;;;;;11.85;1.63;;;16.40;99.90;;;;;;5050774;28;20395;-85
2021/01/01 09:55:29;;;;;;;11.57;1.73;;;16.40;99.90;;;;;;5055724;28;20405;-85
2021/01/01 09:57:56;;;;;;;8.07;1.47;;;16.40;99.90;;;;;;5066755;28;20367;-84
2021/01/01 10:00:23;;;;;;;6.43;1.23;;;16.40;99.90;;;;;;5061747;28;20421;-83
2021/01/01 10:02:50;;;;;;;7.90;1.83;;;16.40;99.90;;;;;;5056731;28;20442;-84
2021/01/01 10:05:20;;;;;;;15.77;2.40;;;16.40;99.90;;;;;;5055931;28;20426;-86
2021/01/01 10:07:50;;;;;;;10.95;1.75;;;16.40;99.90;;;;;;5063170;28;20485;-84
2021/01/01 10:10:18;;;;;;;12.95;1.67;;;16.40;99.90;;;;;;5061892;28;20773;-84
2021/01/01 10:12:45;;;;;;;11.07;1.30;;;16.30;99.90;;;;;;5062659;28;20486;-84
2021/01/01 10:15:15;;;;;;;11.83;1.57;;;16.30;99.90;;;;;;5063083;28;20390;-84
2021/01/01 10:17:42;;;;;;;13.38;1.75;;;16.20;99.90;;;;;;5068804;28;20447;-85
2021/01/01 10:20:09;;;;;;;9.93;1.40;;;16.20;99.90;;;;;;5065956;28;20896;-85
2021/01/01 10:22:37;;;;;;;8.20;1.30;;;16.30;99.90;;;;;;5059427;28;20408;-85
2021/01/01 10:25:05;;;;;;;8.82;1.45;;;16.30;99.90;;;;;;5067834;28;20884;-83
2021/01/01 10:27:32;;;;;;;6.65;1.30;;;16.30;99.90;;;;;;5066198;28;20440;-84
2021/01/01 10:30:00;;;;;;;8.05;1.40;;;16.30;99.90;;;;;;5067888;28;20405;-85
2021/01/01 10:32:27;;;;;;;5.57;0.98;;;16.30;99.90;;;;;;5064875;28;20520;-84
2021/01/01 10:34:54;;;;;;;8.02;1.48;;;16.20;99.90;;;;;;5068864;28;20488;-83
2021/01/01 10:37:28;;;;;;;10.20;1.42;;;16.30;99.90;;;;;;5070366;28;20393;-85
2021/01/01 10:39:55;;;;;;;8.13;1.40;;;16.30;99.90;;;;;;5068412;28;20414;-84
2021/01/01 10:42:27;;;;;;;6.78;1.17;;;16.30;99.90;;;;;;5069040;28;20412;-86
2021/01/01 10:44:54;;;;;;;17.85;1.60;;;16.30;99.90;;;;;;5056302;28;20455;-85
2021/01/01 10:47:21;;;;;;;12.10;1.70;;;16.40;99.90;;;;;;5064239;28;20430;-82
2021/01/01 10:49:48;;;;;;;9.83;1.43;;;16.50;99.90;;;;;;5066798;28;20761;-83
2021/01/01 10:52:15;;;;;;;4.43;0.90;;;16.50;99.90;;;;;;5064259;28;20505;-82
2021/01/01 10:54:42;;;;;;;10.35;1.35;;;16.40;99.90;;;;;;5066840;28;20397;-83
2021/01/01 10:57:09;;;;;;;11.23;1.27;;;16.30;99.90;;;;;;5070542;28;21129;-84
2021/01/01 10:59:37;;;;;;;11.45;0.90;;;16.30;99.90;;;;;;5068383;28;20883;-83
2021/01/01 11:02:03;;;;;;;10.63;1.40;;;16.30;99.90;;;;;;5068464;28;20988;-83
2021/01/01 11:04:30;;;;;;;11.00;1.67;;;16.30;99.90;;;;;;5067305;28;20445;-83
2021/01/01 11:06:58;;;;;;;8.13;1.15;;;16.30;99.90;;;;;;5065992;28;20900;-83
2021/01/01 11:09:25;;;;;;;7.55;1.33;;;16.40;99.90;;;;;;5065450;28;20420;-83
2021/01/01 11:11:55;;;;;;;5.28;0.98;;;16.30;99.90;;;;;;5068983;28;20397;-85
2021/01/01 11:14:39;;;;;;;13.88;1.30;;;16.30;99.90;;;;;;5070360;28;20390;-85
2021/01/01 12:21:43;;;;;;;6.15;1.27;;;16.20;99.90;;;;;;5064700;28;20990;-85
2021/01/01 12:24:27;;;;;;;11.38;1.58;;;16.20;99.90;;;;;;5049253;28;20401;-85
2021/01/01 12:26:54;;;;;;;8.50;1.38;;;16.20;99.90;;;;;;5066688;28;20499;-84
2021/01/01 12:29:27;;;;;;;8.02;1.48;;;16.20;99.90;;;;;;5069193;28;20432;-85
2021/01/01 12:31:56;;;;;;;5.80;1.70;;;16.20;99.90;;;;;;5066840;28;20410;-85
2021/01/01 12:34:23;;;;;;;8.55;1.50;;;16.10;99.90;;;;;;5068113;28;20381;-85
2021/01/01 12:36:50;;;;;;;5.18;1.38;;;16.10;99.90;;;;;;5068075;28;20438;-85
2021/01/01 12:39:17;;;;;;;9.73;1.50;;;16.10;99.90;;;;;;5066182;28;20410;-85
2021/01/01 12:41:44;;;;;;;11.70;1.70;;;16.10;99.90;;;;;;5069163;28;20398;-85
2021/01/01 12:44:11;;;;;;;12.38;1.98;;;16.10;99.90;;;;;;5067301;28;20396;-84
2021/01/01 12:46:38;;;;;;;9.60;1.63;;;16.10;99.90;;;;;;5067649;28;21119;-85
2021/01/01 12:49:05;;;;;;;8.87;1.40;;;16.20;99.90;;;;;;5068131;28;20466;-85
2021/01/01 12:51:32;;;;;;;7.07;1.40;;;16.10;99.90;;;;;;5066236;28;20465;-85
2021/01/01 12:53:59;;;;;;;8.23;1.50;;;16.10;99.90;;;;;;5069906;28;20386;-85
2021/01/01 12:56:26;;;;;;;8.57;1.52;;;16.10;99.90;;;;;;5067510;28;20777;-85
2021/01/01 12:58:53;;;;;;;7.03;1.30;;;16.10;99.90;;;;;;5068601;28;20397;-85
2021/01/01 13:01:20;;;;;;;7.55;1.38;;;16.10;99.90;;;;;;5050714;28;20881;-85
2021/01/01 13:03:47;;;;;;;7.90;1.50;;;16.20;99.90;;;;;;5068989;28;20492;-85
2021/01/01 13:06:18;;;;;;;9.60;1.23;;;16.10;99.90;;;;;;5068137;28;20393;-85
2021/01/01 13:08:45;;;;;;;10.27;1.10;;;16.10;99.90;;;;;;5065871;28;20488;-86
2021/01/01 13:11:12;;;;;;;9.00;1.33;;;16.10;99.90;;;;;;5066772;28;20910;-85
2021/01/01 13:13:39;;;;;;;6.70;1.20;;;16.10;99.90;;;;;;5067886;28;20398;-86
2021/01/01 13:16:06;;;;;;;11.48;1.33;;;16.10;99.90;;;;;;5068189;28;20481;-85
2021/01/01 13:18:33;;;;;;;11.05;1.50;;;16.10;99.90;;;;;;5067110;28;20398;-85
2021/01/01 13:21:06;;;;;;;9.55;1.73;;;16.10;99.90;;;;;;5069335;28;20428;-85
2021/01/01 13:23:39;;;;;;;8.68;1.30;;;16.10;99.90;;;;;;5068287;28;20394;-85
2021/01/01 13:26:06;;;;;;;7.70;1.55;;;16.10;99.90;;;;;;5069025;28;20394;-85
2021/01/01 13:28:33;;;;;;;10.55;1.50;;;16.10;99.90;;;;;;5063111;28;20752;-86
2021/01/01 13:31:00;;;;;;;7.72;1.42;;;16.10;99.90;;;;;;5068134;28;20873;-86
2021/01/01 13:33:27;;;;;;;10.13;1.53;;;16.10;99.90;;;;;;5068588;28;20393;-85
2021/01/01 13:35:54;;;;;;;11.05;1.50;;;16.00;99.90;;;;;;5068498;28;20466;-84
2021/01/01 13:38:24;;;;;;;9.45;1.52;;;16.00;99.90;;;;;;5067135;28;20394;-84
2021/01/01 13:40:51;;;;;;;7.50;1.17;;;16.00;99.90;;;;;;5061440;28;20381;-86
2021/01/01 13:43:18;;;;;;;10.30;1.45;;;15.80;99.90;;;;;;5069095;28;20390;-85
2021/01/01 13:45:45;;;;;;;10.05;1.27;;;15.80;99.90;;;;;;5066746;28;20389;-85
2021/01/01 13:48:12;;;;;;;9.98;1.42;;;15.70;99.90;;;;;;5066782;28;20404;-84
2021/01/01 13:50:39;;;;;;;9.73;1.33;;;15.70;99.90;;;;;;5065598;28;20433;-85
2021/01/01 13:53:06;;;;;;;9.90;1.63;;;15.70;99.90;;;;;;5059227;28;21227;-85
2021/01/01 13:55:36;;;;;;;7.00;1.25;;;15.70;99.90;;;;;;5068088;28;20398;-85
2021/01/01 13:58:03;;;;;;;7.97;1.45;;;15.70;99.90;;;;;;5067860;28;20883;-84
2021/01/01 14:00:30;;;;;;;10.60;1.45;;;15.60;99.90;;;;;;5066160;28;20378;-85